Time;durP1;ratioP1;P1;durP2;ratioP2;P2;SDS_P1;SDS_P2;PMS_P1;PMS_P2;Temp;Humidity;BMP_temperature;BMP_pressure;BME280_temperature;BME280_humidity;BME280_pressure;Samples;Min_cycle;Max_cycle;Signal;HPM_P1;HPM_P2
2022/11/22 00:00:04;;;;;;;4.77;2.47;;;;;;;5.32;100.00;97089.41;4956162;29;20248;-80
2022/11/22 00:02:33;;;;;;;4.97;2.53;;;;;;;5.31;100.00;97098.22;4949570;29;20197;-80
2022/11/22 00:05:02;;;;;;;5.37;2.80;;;;;;;5.39;100.00;97084.50;4991736;28;20206;-79
2022/11/22 00:07:31;;;;;;;6.40;2.70;;;;;;;5.28;100.00;97081.88;4995251;28;20188;-81
2022/11/22 00:09:59;;;;;;;7.10;2.87;;;;;;;5.37;100.00;97082.00;4990286;28;20210;-80
2022/11/22 00:12:28;;;;;;;6.13;2.53;;;;;;;5.38;100.00;97077.59;5002543;28;20236;-80
2022/11/22 00:14:58;;;;;;;7.10;2.70;;;;;;;5.40;100.00;97076.53;5050662;28;20286;-80
2022/11/22 00:17:26;;;;;;;6.23;2.30;;;;;;;5.38;100.00;97065.28;5021634;28;20204;-80
2022/11/22 00:19:55;;;;;;;6.67;2.70;;;;;;;5.33;100.00;97064.00;5096284;28;20253;-79
2022/11/22 00:22:23;;;;;;;6.43;2.80;;;;;;;5.32;100.00;97067.56;5033763;28;20252;-80
2022/11/22 00:24:57;;;;;;;9.63;2.70;;;;;;;5.32;100.00;97072.81;5032228;28;20224;-80
2022/11/22 00:27:25;;;;;;;6.57;2.70;;;;;;;5.18;100.00;97074.69;5029209;28;20205;-80
2022/11/22 00:29:54;;;;;;;3.87;2.60;;;;;;;5.19;100.00;97067.66;5029372;28;20210;-80
2022/11/22 00:32:24;;;;;;;7.73;2.70;;;;;;;5.19;100.00;97059.78;5029949;28;20257;-80
2022/11/22 00:34:52;;;;;;;6.67;2.60;;;;;;;5.28;100.00;97066.13;4974785;28;20204;-80
2022/11/22 00:37:21;;;;;;;8.70;2.90;;;;;;;5.24;100.00;97062.06;4972876;28;20199;-80
2022/11/22 00:39:50;;;;;;;8.43;3.03;;;;;;;5.25;100.00;97059.31;4895232;29;20697;-80
2022/11/22 00:42:21;;;;;;;7.80;2.70;;;;;;;5.23;100.00;97049.91;4891468;29;20258;-80
2022/11/22 00:44:49;;;;;;;6.63;2.97;;;;;;;5.29;100.00;97038.91;4916868;29;20194;-80
2022/11/22 00:47:18;;;;;;;7.00;2.53;;;;;;;5.26;100.00;97049.66;4960049;28;20199;-80
2022/11/22 00:49:47;;;;;;;5.50;2.80;;;;;;;5.29;100.00;97047.63;4935054;29;20201;-79
2022/11/22 00:52:16;;;;;;;5.83;2.50;;;;;;;5.31;100.00;97047.53;4911473;28;20204;-80
2022/11/22 00:54:44;;;;;;;6.67;3.00;;;;;;;5.28;100.00;97043.34;4967753;28;20246;-79
2022/11/22 00:57:21;;;;;;;6.27;2.90;;;;;;;5.31;100.00;97045.75;4984945;28;20189;-79
2022/11/22 00:59:50;;;;;;;8.73;3.20;;;;;;;5.23;100.00;97034.16;5033267;28;20252;-80
2022/11/22 01:02:19;;;;;;;7.93;3.03;;;;;;;5.29;100.00;97044.16;4981578;28;20259;-80
2022/11/22 01:04:49;;;;;;;7.53;3.43;;;;;;;5.32;100.00;97033.47;5032088;28;20233;-80
2022/11/22 01:07:18;;;;;;;7.93;3.17;;;;;;;5.36;100.00;97042.75;5029481;28;20217;-80
2022/11/22 01:09:47;;;;;;;5.97;3.33;;;;;;;5.30;100.00;97038.78;5024956;28;20201;-80
2022/11/22 01:12:15;;;;;;;5.47;2.77;;;;;;;5.28;100.00;97043.34;5030769;28;20197;-80
2022/11/22 01:14:44;;;;;;;8.73;3.00;;;;;;;5.26;100.00;97031.28;5072492;28;20674;-80
2022/11/22 01:17:16;;;;;;;12.47;3.93;;;;;;;5.33;100.00;97033.34;5092755;28;20257;-80
2022/11/22 01:19:44;;;;;;;7.47;3.03;;;;;;;5.33;100.00;97029.88;5092389;28;20284;-81
2022/11/22 01:22:14;;;;;;;5.43;3.10;;;;;;;5.32;100.00;97031.66;5093753;28;20192;-80
2022/11/22 01:24:42;;;;;;;8.37;3.57;;;;;;;5.29;100.00;97041.53;5093186;28;20192;-80
2022/11/22 01:27:11;;;;;;;7.10;3.40;;;;;;;5.24;100.00;97044.53;5093315;28;20194;-80
2022/11/22 01:29:39;;;;;;;6.43;3.40;;;;;;;5.25;100.00;97050.63;5094792;28;20184;-80
2022/11/22 01:32:07;;;;;;;6.43;3.23;;;;;;;5.32;100.00;97047.41;5094880;28;20219;-80
2022/11/22 01:34:40;;;;;;;7.97;3.23;;;;;;;5.27;100.00;97046.06;5084741;28;20195;-80
2022/11/22 01:37:11;;;;;;;7.50;3.27;;;;;;;5.25;100.00;97042.75;5087914;28;20213;-80
2022/11/22 01:39:40;;;;;;;8.20;3.70;;;;;;;5.30;100.00;97049.28;5093255;28;20335;-80
2022/11/22 01:42:10;;;;;;;8.90;3.30;;;;;;;5.37;100.00;97054.91;5097160;27;20638;-80
2022/11/22 01:44:41;;;;;;;6.33;3.57;;;;;;;5.25;100.00;97059.31;5094628;28;20188;-80
2022/11/22 01:47:13;;;;;;;6.43;3.47;;;;;;;5.38;100.00;97057.41;5093460;28;20195;-80
2022/11/22 01:49:47;;;;;;;10.27;3.37;;;;;;;5.30;100.00;97061.59;5095953;27;20257;-80
2022/11/22 01:52:19;;;;;;;7.50;3.30;;;;;;;5.30;100.00;97072.06;5059193;28;20232;-80
2022/11/22 01:54:55;;;;;;;9.27;3.10;;;;;;;5.35;100.00;97060.28;5091016;28;20199;-80
2022/11/22 01:57:27;;;;;;;8.00;3.30;;;;;;;5.37;100.00;97066.25;5092208;28;20191;-80
2022/11/22 01:59:59;;;;;;;7.37;3.90;;;;;;;5.38;100.00;97078.41;5093799;28;20264;-80
2022/11/22 02:02:28;;;;;;;6.23;3.40;;;;;;;5.41;100.00;97075.56;5093483;28;20225;-80
2022/11/22 02:04:59;;;;;;;7.27;3.80;;;;;;;5.44;100.00;97066.63;5094371;28;20199;-80
2022/11/22 02:07:34;;;;;;;9.30;3.20;;;;;;;5.35;100.00;97062.06;5093770;28;20229;-80
2022/11/22 02:10:05;;;;;;;9.30;3.83;;;;;;;5.43;100.00;97081.53;5090892;28;20195;-80
2022/11/22 02:12:36;;;;;;;7.77;3.00;;;;;;;5.39;100.00;97080.09;5085297;28;20200;-80
2022/11/22 02:15:06;;;;;;;9.40;3.50;;;;;;;5.37;100.00;97083.78;5095700;27;20188;-80
2022/11/22 02:17:35;;;;;;;5.50;3.77;;;;;;;5.51;100.00;97085.38;5056463;28;20196;-81
2022/11/22 02:20:06;;;;;;;7.93;3.53;;;;;;;5.40;100.00;97089.66;5092941;28;20199;-80
2022/11/22 02:22:44;;;;;;;8.30;3.70;;;;;;;5.39;100.00;97102.88;5094156;28;20198;-81
2022/11/22 02:25:22;;;;;;;7.73;3.73;;;;;;;5.27;100.00;97094.16;5093830;28;20200;-80
2022/11/22 02:27:52;;;;;;;6.83;4.27;;;;;;;5.38;100.00;97091.53;5093920;28;20199;-80
2022/11/22 02:30:21;;;;;;;7.60;4.10;;;;;;;5.43;100.00;97091.22;5096207;27;20221;-80
2022/11/22 02:32:49;;;;;;;8.03;4.23;;;;;;;5.49;100.00;97089.88;5097985;28;20591;-80
2022/11/22 02:35:20;;;;;;;8.27;4.87;;;;;;;5.41;100.00;97095.75;5100501;28;20184;-80
2022/11/22 02:37:54;;;;;;;9.00;5.00;;;;;;;5.35;100.00;97097.03;5092348;28;20202;-80
2022/11/22 02:40:24;;;;;;;13.43;4.80;;;;;;;5.36;100.00;97101.31;5090014;28;20237;-80
2022/11/22 02:43:02;;;;;;;7.87;4.50;;;;;;;5.49;100.00;97100.38;5091675;28;20191;-80
2022/11/22 02:45:30;;;;;;;7.67;5.00;;;;;;;5.38;100.00;97101.19;5093617;28;20191;-80
2022/11/22 02:48:05;;;;;;;9.03;5.20;;;;;;;5.50;100.00;97113.41;5089833;28;20192;-80
2022/11/22 02:50:34;;;;;;;7.27;4.23;;;;;;;5.42;100.00;97110.53;5093671;28;20675;-80
2022/11/22 02:53:02;;;;;;;9.87;5.17;;;;;;;5.34;100.00;97110.28;5093817;28;20650;-80
2022/11/22 02:55:31;;;;;;;8.40;4.83;;;;;;;5.39;100.00;97108.13;5091554;28;20200;-80
2022/11/22 02:58:04;;;;;;;7.10;5.13;;;;;;;5.40;100.00;97105.41;5093499;28;20187;-80
2022/11/22 03:00:36;;;;;;;13.10;5.67;;;;;;;5.43;100.00;97099.06;5086187;28;20233;-80
2022/11/22 03:03:05;;;;;;;11.57;6.00;;;;;;;5.39;100.00;97098.47;5091591;28;20278;-80
2022/11/22 03:05:35;;;;;;;8.23;5.37;;;;;;;5.43;100.00;97104.31;5091304;28;20241;-80
2022/11/22 03:08:05;;;;;;;8.67;5.30;;;;;;;5.42;100.00;97108.75;5086199;28;20196;-80
2022/11/22 03:10:33;;;;;;;9.07;5.93;;;;;;;5.40;100.00;97115.03;5090762;28;20704;-80
2022/11/22 03:13:05;;;;;;;9.10;5.77;;;;;;;5.42;100.00;97119.25;5092146;28;20261;-81
2022/11/22 03:15:33;;;;;;;8.50;5.97;;;;;;;5.49;100.00;97124.84;5093461;28;20195;-80
2022/11/22 03:18:04;;;;;;;7.83;5.90;;;;;;;5.52;100.00;97129.03;5085166;28;20650;-80
2022/11/22 03:20:34;;;;;;;10.73;6.20;;;;;;;5.45;100.00;97126.88;5025770;28;20288;-80
2022/11/22 03:23:02;;;;;;;9.57;5.70;;;;;;;5.36;100.00;97106.56;5031869;28;20197;-80
2022/11/22 03:25:31;;;;;;;10.40;6.37;;;;;;;5.44;100.00;97116.50;5026460;28;20209;-80
2022/11/22 03:27:59;;;;;;;10.33;6.57;;;;;;;5.42;100.00;97136.78;5026056;28;20190;-81
2022/11/22 03:30:29;;;;;;;9.57;5.90;;;;;;;5.54;100.00;97141.09;5024467;28;20249;-81
2022/11/22 03:32:57;;;;;;;10.17;6.37;;;;;;;5.45;100.00;97136.53;5024630;28;20194;-80
2022/11/22 03:35:26;;;;;;;9.30;6.30;;;;;;;5.51;100.00;97149.22;5026193;28;20194;-80
2022/11/22 03:37:56;;;;;;;9.20;6.20;;;;;;;5.53;100.00;97139.44;5008152;28;20188;-80
2022/11/22 03:40:25;;;;;;;11.37;7.00;;;;;;;5.52;100.00;97139.53;5091397;28;20222;-80
2022/11/22 03:42:53;;;;;;;9.80;7.10;;;;;;;5.55;100.00;97142.75;5091614;28;20212;-81
2022/11/22 03:45:22;;;;;;;11.60;7.23;;;;;;;5.62;100.00;97141.34;5091071;28;20200;-80
2022/11/22 03:47:52;;;;;;;10.23;7.10;;;;;;;5.56;100.00;97139.19;5092044;28;20195;-80
2022/11/22 03:50:20;;;;;;;12.90;8.20;;;;;;;5.55;100.00;97142.75;5090111;28;20191;-80
2022/11/22 03:52:49;;;;;;;12.30;7.60;;;;;;;5.62;100.00;97137.88;5087385;28;20192;-80
2022/11/22 03:55:17;;;;;;;14.77;8.60;;;;;;;5.63;100.00;97148.28;5090890;28;20207;-81
2022/11/22 03:57:47;;;;;;;10.87;8.23;;;;;;;5.63;100.00;97155.31;5092790;28;20203;-81
2022/11/22 04:00:16;;;;;;;14.00;8.77;;;;;;;5.67;100.00;97165.44;5091066;28;20195;-81
2022/11/22 04:02:47;;;;;;;11.00;8.67;;;;;;;5.74;100.00;97164.03;5084385;28;20269;-80
2022/11/22 04:05:17;;;;;;;13.50;9.17;;;;;;;5.61;100.00;97171.19;5095360;28;20215;-81
2022/11/22 04:07:46;;;;;;;13.70;9.37;;;;;;;5.67;100.00;97175.13;5090224;28;20207;-81
2022/11/22 04:10:15;;;;;;;16.07;10.13;;;;;;;5.71;100.00;97181.84;5089077;28;20225;-80
2022/11/22 04:12:49;;;;;;;14.17;9.97;;;;;;;5.67;100.00;97183.00;5092610;28;20681;-81
2022/11/22 04:15:17;;;;;;;13.10;9.97;;;;;;;5.80;100.00;97183.75;5092262;28;20677;-81
2022/11/22 04:17:47;;;;;;;14.53;10.33;;;;;;;5.79;100.00;97187.34;5046086;28;20255;-81
2022/11/22 04:23:06;;;;;;;15.17;11.37;;;;;;;5.87;100.00;97179.69;5051804;28;20250;-81
2022/11/22 04:25:35;;;;;;;14.97;10.67;;;;;;;5.78;100.00;97192.69;5053907;28;20196;-80
2022/11/22 04:28:05;;;;;;;16.13;11.23;;;;;;;5.80;100.00;97189.00;5053414;28;20185;-81
2022/11/22 04:33:21;;;;;;;14.90;11.00;;;;;;;5.75;100.00;97194.59;5052726;28;20197;-81
2022/11/22 04:35:52;;;;;;;16.63;11.27;;;;;;;5.75;100.00;97189.34;5065337;28;20188;-80
2022/11/22 04:38:25;;;;;;;13.70;10.37;;;;;;;5.84;100.00;97186.97;5054977;28;20188;-81
2022/11/22 04:40:54;;;;;;;15.93;11.73;;;;;;;5.83;100.00;97182.69;5094463;28;20192;-81
2022/11/22 04:46:13;;;;;;;15.20;11.20;;;;;;;5.85;100.00;97183.38;5096094;28;20219;-81
2022/11/22 04:48:42;;;;;;;20.40;12.80;;;;;;;5.78;100.00;97174.31;5094451;28;20199;-81
2022/11/22 04:54:00;;;;;;;18.80;11.70;;;;;;;5.86;100.00;97174.56;5094425;28;20207;-81
2022/11/22 04:56:28;;;;;;;20.23;13.10;;;;;;;5.65;100.00;97175.25;5090069;28;20256;-81
2022/11/22 04:58:57;;;;;;;17.57;12.90;;;;;;;5.73;100.00;97179.91;5056600;28;20191;-81
2022/11/22 05:01:25;;;;;;;16.80;12.70;;;;;;;5.77;100.00;97186.59;5092968;28;20253;-81
2022/11/22 05:03:54;;;;;;;20.13;12.90;;;;;;;5.78;100.00;97184.81;5092853;28;20226;-81
2022/11/22 05:06:24;;;;;;;16.13;12.60;;;;;;;5.83;100.00;97180.06;5076588;28;20245;-81
2022/11/22 05:08:57;;;;;;;20.17;13.73;;;;;;;5.85;100.00;97186.03;5098020;27;20249;-81
2022/11/22 05:11:27;;;;;;;17.43;12.63;;;;;;;5.80;100.00;97185.56;5092168;28;20196;-81
2022/11/22 05:13:55;;;;;;;20.77;14.60;;;;;;;5.78;100.00;97195.31;5073936;28;20241;-81
2022/11/22 05:16:23;;;;;;;23.37;15.37;;;;;;;5.78;100.00;97208.44;5088828;28;20651;-81
2022/11/22 05:18:59;;;;;;;24.37;14.47;;;;;;;5.62;100.00;97201.75;5088437;28;20192;-81
2022/11/22 05:21:32;;;;;;;26.70;14.97;;;;;;;5.80;100.00;97202.16;5093950;28;20256;-81
2022/11/22 05:23:59;;;;;;;20.50;14.17;;;;;;;5.73;100.00;97211.44;5091274;28;20270;-80
2022/11/22 05:26:29;;;;;;;24.70;15.00;;;;;;;5.72;100.00;97215.84;5090452;28;20237;-80
2022/11/22 05:28:59;;;;;;;30.73;15.40;;;;;;;5.65;100.00;97219.06;5090545;28;20199;-80
2022/11/22 05:31:27;;;;;;;27.30;14.80;;;;;;;5.73;100.00;97217.53;5092667;28;20212;-81
2022/11/22 05:33:58;;;;;;;37.87;16.23;;;;;;;5.77;100.00;97217.28;5092144;28;20195;-81
2022/11/22 05:36:27;;;;;;;30.23;14.87;;;;;;;5.75;100.00;97235.78;5076620;28;20187;-81
2022/11/22 05:38:57;;;;;;;26.50;15.57;;;;;;;5.75;100.00;97241.03;5086361;28;20204;-81
2022/11/22 05:41:26;;;;;;;27.00;15.80;;;;;;;5.78;100.00;97245.22;5093588;28;20196;-81
2022/11/22 05:43:55;;;;;;;26.10;15.10;;;;;;;5.87;100.00;97247.16;5095097;28;20207;-81
2022/11/22 05:46:26;;;;;;;27.80;15.83;;;;;;;5.89;100.00;97246.09;5090425;28;20253;-79
2022/11/22 05:48:56;;;;;;;24.40;15.93;;;;;;;5.92;100.00;97247.69;5091674;28;20252;-80
2022/11/22 05:51:26;;;;;;;21.17;14.83;;;;;;;5.97;100.00;97250.78;5094560;28;20221;-80
2022/11/22 05:54:03;;;;;;;25.97;15.57;;;;;;;6.00;100.00;97258.44;5094739;28;20279;-80
2022/11/22 05:56:32;;;;;;;26.40;16.03;;;;;;;6.02;100.00;97261.78;5089956;28;20249;-80
2022/11/22 05:59:04;;;;;;;26.87;15.50;;;;;;;6.07;100.00;97254.38;5091031;28;20200;-80
2022/11/22 06:01:32;;;;;;;28.93;16.40;;;;;;;6.02;100.00;97253.91;5096481;27;20405;-80
2022/11/22 06:04:01;;;;;;;30.67;17.27;;;;;;;5.92;100.00;97271.31;5088880;28;20219;-80
2022/11/22 06:06:30;;;;;;;28.63;17.50;;;;;;;5.94;100.00;97269.41;5088264;28;20269;-80
2022/11/22 06:09:00;;;;;;;25.17;16.50;;;;;;;5.87;100.00;97274.25;5092183;28;20192;-81
2022/11/22 06:11:30;;;;;;;31.13;17.57;;;;;;;5.93;100.00;97273.84;5093054;28;20199;-81
2022/11/22 06:14:02;;;;;;;27.50;17.87;;;;;;;5.96;100.00;97281.47;5092473;28;20219;-80
2022/11/22 06:16:32;;;;;;;27.40;16.90;;;;;;;5.95;100.00;97279.81;5094370;28;20187;-80
2022/11/22 06:19:00;;;;;;;25.50;15.73;;;;;;;6.01;100.00;97289.84;5093128;28;20223;-80
2022/11/22 06:21:29;;;;;;;29.93;17.30;;;;;;;6.02;100.00;97296.78;5093322;28;20199;-80
2022/11/22 06:24:00;;;;;;;26.17;16.10;;;;;;;6.10;100.00;97295.38;5093049;28;20252;-80
2022/11/22 06:26:31;;;;;;;26.07;16.33;;;;;;;6.15;100.00;97307.19;5094104;28;20195;-80
2022/11/22 06:29:06;;;;;;;27.33;16.50;;;;;;;6.06;100.00;97304.44;5049885;28;20203;-81
2022/11/22 06:31:35;;;;;;;28.10;17.10;;;;;;;6.08;100.00;97305.16;5045700;28;20225;-81
2022/11/22 06:34:04;;;;;;;30.57;17.30;;;;;;;6.10;100.00;97308.53;5047182;28;20200;-81
2022/11/22 06:36:34;;;;;;;35.63;18.10;;;;;;;6.05;100.00;97310.63;5050816;28;20189;-80
2022/11/22 06:39:03;;;;;;;33.10;16.67;;;;;;;6.10;100.00;97309.34;5042128;28;20243;-81
2022/11/22 06:41:35;;;;;;;25.73;16.37;;;;;;;6.05;100.00;97319.34;5045802;28;20217;-81
2022/11/22 06:44:06;;;;;;;34.80;18.57;;;;;;;6.14;100.00;97316.03;5045208;28;20213;-81
2022/11/22 06:46:36;;;;;;;28.20;17.57;;;;;;;6.21;100.00;97319.03;5057114;28;20188;-81
2022/11/22 06:49:04;;;;;;;30.87;19.57;;;;;;;6.20;100.00;97318.22;5091375;28;20203;-80
2022/11/22 06:51:33;;;;;;;32.40;18.37;;;;;;;6.04;100.00;97328.19;5093697;28;20253;-81
2022/11/22 06:54:02;;;;;;;27.03;16.77;;;;;;;6.10;100.00;97334.78;5092292;28;20188;-81
2022/11/22 06:56:32;;;;;;;29.63;17.60;;;;;;;6.12;100.00;97346.03;5092072;28;20188;-81
2022/11/22 06:59:06;;;;;;;31.47;18.27;;;;;;;6.18;100.00;97349.03;5093511;28;20188;-81
2022/11/22 07:01:36;;;;;;;32.23;19.07;;;;;;;6.18;100.00;97342.94;5089245;28;20203;-81
2022/11/22 07:04:05;;;;;;;34.50;19.10;;;;;;;6.23;100.00;97351.31;5092828;28;20266;-81
2022/11/22 07:06:36;;;;;;;31.10;19.37;;;;;;;6.21;100.00;97338.28;5093427;28;20191;-81
2022/11/22 07:09:06;;;;;;;29.03;18.53;;;;;;;6.22;100.00;97339.97;5093509;28;20241;-81
2022/11/22 07:11:36;;;;;;;34.77;19.37;;;;;;;6.19;100.00;97339.38;5087997;28;20223;-81
2022/11/22 07:14:06;;;;;;;30.87;19.23;;;;;;;6.22;100.00;97347.00;5093414;28;20202;-80
2022/11/22 07:16:37;;;;;;;33.13;20.83;;;;;;;6.18;100.00;97348.19;5090872;28;20211;-81
2022/11/22 07:19:14;;;;;;;32.37;19.53;;;;;;;6.34;100.00;97339.97;5025716;28;20736;-81
2022/11/22 07:21:43;;;;;;;33.00;21.20;;;;;;;6.20;100.00;97346.28;4991631;28;20199;-81
2022/11/22 07:24:12;;;;;;;35.33;20.37;;;;;;;6.26;100.00;97353.69;4991133;28;20219;-80
2022/11/22 07:26:40;;;;;;;36.33;20.03;;;;;;;6.24;100.00;97353.81;4987598;28;20195;-81
2022/11/22 07:29:10;;;;;;;34.80;20.10;;;;;;;6.27;100.00;97353.59;4985513;28;20199;-81
2022/11/22 07:31:39;;;;;;;34.10;20.03;;;;;;;6.22;100.00;97363.63;4987596;28;20231;-81
2022/11/22 07:34:07;;;;;;;33.43;19.10;;;;;;;6.27;100.00;97363.25;4986241;28;20202;-81
2022/11/22 07:36:36;;;;;;;31.37;18.10;;;;;;;6.29;100.00;97364.84;4999010;28;20201;-81
2022/11/22 07:39:05;;;;;;;33.10;19.20;;;;;;;6.19;100.00;97373.53;5059256;28;20265;-81
2022/11/22 07:41:34;;;;;;;33.00;18.93;;;;;;;6.21;100.00;97369.00;5093439;28;20241;-81
2022/11/22 07:44:02;;;;;;;31.37;17.67;;;;;;;6.26;100.00;97379.97;5086358;28;20286;-81
2022/11/22 07:46:33;;;;;;;33.83;18.60;;;;;;;6.30;100.00;97382.28;5069998;28;20188;-81
2022/11/22 07:49:02;;;;;;;30.03;18.67;;;;;;;6.26;100.00;97383.44;5088985;28;20651;-80
2022/11/22 07:51:31;;;;;;;38.17;20.73;;;;;;;6.09;100.00;97388.31;5093257;28;20196;-81
2022/11/22 07:53:59;;;;;;;31.30;19.33;;;;;;;6.22;100.00;97391.69;5092823;28;20195;-81
2022/11/22 07:56:28;;;;;;;32.90;19.40;;;;;;;6.31;100.00;97388.38;5095386;28;20196;-81
2022/11/22 07:58:56;;;;;;;36.37;19.30;;;;;;;6.39;100.00;97393.91;5096671;28;20245;-81
2022/11/22 08:01:25;;;;;;;37.73;20.30;;;;;;;6.43;100.00;97394.50;5096699;28;20188;-81
2022/11/22 08:03:56;;;;;;;38.97;20.83;;;;;;;6.39;100.00;97383.38;5097893;27;20256;-81
2022/11/22 08:06:25;;;;;;;31.37;20.43;;;;;;;6.48;100.00;97387.94;5094520;28;20188;-81
2022/11/22 08:08:54;;;;;;;33.60;21.17;;;;;;;6.51;100.00;97397.38;5097558;28;20387;-81
2022/11/22 08:11:29;;;;;;;32.20;21.20;;;;;;;6.58;100.00;97398.59;5093979;28;20645;-81
2022/11/22 08:13:57;;;;;;;30.87;20.63;;;;;;;6.54;100.00;97390.09;5089681;28;20324;-81
2022/11/22 08:16:26;;;;;;;32.73;20.47;;;;;;;6.49;100.00;97394.88;5073781;28;20654;-81
2022/11/22 08:18:56;;;;;;;32.03;21.10;;;;;;;6.37;100.00;97395.81;5066585;28;20188;-81
2022/11/22 08:21:24;;;;;;;35.00;19.67;;;;;;;6.51;100.00;97407.91;5071432;28;20193;-81
2022/11/22 08:23:58;;;;;;;32.30;18.87;;;;;;;6.44;100.00;97406.69;5069490;28;20228;-81
2022/11/22 08:26:27;;;;;;;32.53;18.17;;;;;;;6.38;100.00;97417.69;5067012;28;20219;-80
2022/11/22 08:28:56;;;;;;;29.60;17.17;;;;;;;6.40;100.00;97423.66;5064788;28;20196;-81
2022/11/22 08:31:26;;;;;;;32.17;17.07;;;;;;;6.36;100.00;97428.28;5070012;28;20228;-81
2022/11/22 08:33:56;;;;;;;32.93;17.50;;;;;;;6.47;100.00;97417.00;5076737;28;20642;-81
2022/11/22 08:36:25;;;;;;;27.90;16.70;;;;;;;6.43;100.00;97415.53;5094865;28;20192;-81
2022/11/22 08:38:54;;;;;;;27.87;17.40;;;;;;;6.39;100.00;97424.59;5094211;28;20191;-81
2022/11/22 08:41:22;;;;;;;36.03;18.30;;;;;;;6.38;100.00;97422.94;5096317;28;20219;-81
2022/11/22 08:43:53;;;;;;;30.00;17.17;;;;;;;6.41;100.00;97428.78;5091008;28;20216;-81
2022/11/22 08:46:22;;;;;;;33.07;17.40;;;;;;;6.31;100.00;97426.00;5096009;28;20199;-81
2022/11/22 08:48:52;;;;;;;33.50;17.40;;;;;;;6.33;100.00;97425.91;5053351;28;20284;-81
2022/11/22 08:51:24;;;;;;;55.23;30.37;;;;;;;6.40;100.00;97434.16;5094832;28;20253;-82
2022/11/22 08:53:57;;;;;;;37.57;19.80;;;;;;;6.43;100.00;97442.66;5096526;28;20226;-81
2022/11/22 08:56:25;;;;;;;50.20;27.53;;;;;;;6.56;100.00;97453.09;5095430;28;20192;-81
2022/11/22 08:58:54;;;;;;;32.13;17.63;;;;;;;6.54;100.00;97452.38;5093406;28;20643;-82
2022/11/22 09:01:22;;;;;;;30.47;16.47;;;;;;;6.53;100.00;97446.28;5087963;28;20202;-82
2022/11/22 09:03:51;;;;;;;26.47;14.73;;;;;;;6.36;100.00;97451.94;5089417;28;20228;-81
2022/11/22 09:06:20;;;;;;;34.37;16.37;;;;;;;6.40;100.00;97447.31;5092708;28;20214;-82
2022/11/22 09:09:11;;;;;;;27.00;14.10;;;;;;;6.36;100.00;97462.47;5066645;28;20202;-82
2022/11/22 09:11:59;;;;;;;24.10;12.50;;;;;;;6.36;100.00;97454.56;5095845;28;20678;-81
2022/11/22 09:14:27;;;;;;;23.30;11.80;;;;;;;6.36;100.00;97457.22;5095183;28;20242;-82
2022/11/22 09:16:56;;;;;;;26.20;12.30;;;;;;;6.34;100.00;97453.03;5092440;28;20256;-82
2022/11/22 09:19:24;;;;;;;25.00;11.47;;;;;;;6.28;100.00;97444.66;5092862;28;20200;-81
2022/11/22 09:21:53;;;;;;;23.07;10.70;;;;;;;6.34;100.00;97442.50;5093855;28;20199;-82
2022/11/22 09:24:24;;;;;;;16.53;9.73;;;;;;;6.40;100.00;97445.53;5094209;28;20211;-82
2022/11/22 09:26:52;;;;;;;19.73;9.00;;;;;;;6.34;100.00;97445.13;5069368;28;20203;-82
2022/11/22 09:29:24;;;;;;;19.83;8.83;;;;;;;6.40;100.00;97453.41;5094330;28;20199;-82
2022/11/22 09:31:54;;;;;;;22.63;8.60;;;;;;;6.47;100.00;97456.44;5091676;28;20280;-81
2022/11/22 09:34:24;;;;;;;20.30;8.70;;;;;;;6.53;100.00;97455.97;5094057;28;20253;-82
2022/11/22 09:36:53;;;;;;;22.80;7.77;;;;;;;6.52;100.00;97455.13;5091084;28;20188;-82
2022/11/22 09:39:21;;;;;;;24.20;9.47;;;;;;;6.62;100.00;97457.91;5094865;28;20308;-82
2022/11/22 09:42:14;;;;;;;24.50;10.37;;;;;;;6.80;100.00;97460.94;5089734;28;20192;-82
2022/11/22 09:45:02;;;;;;;19.00;8.00;;;;;;;6.84;100.00;97443.94;5094159;28;20294;-82
2022/11/22 09:47:38;;;;;;;28.20;11.13;;;;;;;6.96;100.00;97448.28;5092229;28;20493;-81
2022/11/22 09:50:17;;;;;;;23.00;8.97;;;;;;;6.88;100.00;97445.41;5095028;28;20191;-81
2022/11/22 09:52:52;;;;;;;16.93;8.33;;;;;;;6.91;100.00;97436.44;5091741;28;20229;-81
2022/11/22 09:55:26;;;;;;;19.40;7.13;;;;;;;6.92;100.00;97440.72;5093474;28;20213;-82
2022/11/22 09:58:06;;;;;;;20.90;6.13;;;;;;;6.92;100.00;97428.41;5089005;28;20200;-82
2022/11/22 10:00:35;;;;;;;18.43;6.00;;;;;;;6.92;100.00;97424.94;5012559;28;20216;-82
2022/11/22 10:03:10;;;;;;;25.27;7.83;;;;;;;7.01;100.00;97425.06;5008008;28;20198;-82
2022/11/22 10:05:50;;;;;;;16.27;6.53;;;;;;;7.08;100.00;97425.44;5002958;28;20719;-82
2022/11/22 10:08:34;;;;;;;25.70;9.53;;;;;;;7.26;100.00;97421.38;5012492;28;20186;-82
2022/11/22 10:11:11;;;;;;;22.10;7.63;;;;;;;7.29;100.00;97418.50;5012354;28;20256;-82
2022/11/22 10:13:49;;;;;;;18.13;6.47;;;;;;;7.36;100.00;97413.59;5010551;28;20194;-82
2022/11/22 10:16:23;;;;;;;22.60;6.37;;;;;;;7.49;100.00;97405.53;5010278;28;20201;-81
2022/11/22 10:18:57;;;;;;;28.80;8.43;;;;;;;7.54;100.00;97400.75;5010833;28;20241;-81
2022/11/22 10:21:27;;;;;;;29.13;7.60;;;;;;;7.59;100.00;97388.03;5009473;28;20191;-81
2022/11/22 10:23:55;;;;;;;18.87;5.90;;;;;;;7.50;100.00;97383.50;5012045;28;20206;-81
2022/11/22 10:26:27;;;;;;;24.40;6.00;;;;;;;7.41;100.00;97387.72;5091809;28;20215;-82
2022/11/22 10:29:09;;;;;;;11.87;4.63;;;;;;;7.41;100.00;97372.75;5094069;28;20184;-83
2022/11/22 10:31:44;;;;;;;40.50;12.63;;;;;;;7.51;100.00;97369.38;5091476;28;20288;-82
2022/11/22 10:34:23;;;;;;;16.37;4.87;;;;;;;7.56;100.00;97375.13;5095475;27;20222;-81
2022/11/22 10:37:02;;;;;;;20.13;5.47;;;;;;;7.38;100.00;97370.38;5093989;28;20244;-81
2022/11/22 10:39:55;;;;;;;21.80;6.93;;;;;;;7.38;100.00;97357.19;5089639;28;20195;-81
2022/11/22 10:42:48;;;;;;;13.43;3.80;;;;;;;7.40;100.00;97357.06;5093188;28;20259;-82
2022/11/22 10:45:24;;;;;;;11.50;3.60;;;;;;;7.39;100.00;97360.66;5094784;27;20725;-81
2022/11/22 10:48:01;;;;;;;12.10;3.93;;;;;;;7.52;100.00;97344.72;5100235;28;20191;-81
2022/11/22 10:50:41;;;;;;;14.40;3.90;;;;;;;7.55;100.00;97344.47;5059667;28;20245;-82
2022/11/22 10:53:20;;;;;;;10.83;3.77;;;;;;;7.53;100.00;97338.47;5098526;28;20194;-82
2022/11/22 10:55:57;;;;;;;11.93;3.60;;;;;;;7.39;100.00;97334.34;5103780;28;20251;-82
2022/11/22 10:58:36;;;;;;;10.87;3.37;;;;;;;7.50;100.00;97330.81;5083537;28;20195;-81
2022/11/22 11:01:18;;;;;;;12.40;3.30;;;;;;;7.50;100.00;97330.81;5107224;28;20221;-82
2022/11/22 11:03:49;;;;;;;11.67;3.63;;;;;;;7.63;100.00;97331.53;5099855;28;20233;-81
2022/11/22 11:06:22;;;;;;;13.77;4.17;;;;;;;7.63;100.00;97323.63;5102686;28;20328;-82
2022/11/22 11:09:17;;;;;;;13.17;3.77;;;;;;;7.53;100.00;97335.84;5093514;28;20199;-82
2022/11/22 11:12:13;;;;;;;15.90;3.83;;;;;;;7.44;100.00;97332.19;5112028;28;20279;-82
2022/11/22 11:14:49;;;;;;;13.43;4.30;;;;;;;7.47;100.00;97339.81;5113128;28;20198;-82
2022/11/22 11:17:25;;;;;;;16.27;4.93;;;;;;;7.64;100.00;97341.09;5108407;28;20203;-81
2022/11/22 11:20:01;;;;;;;12.60;4.10;;;;;;;7.58;100.00;97349.50;5116100;28;20762;-81
2022/11/22 11:22:33;;;;;;;11.97;3.63;;;;;;;7.50;100.00;97354.53;5116961;27;20194;-82
2022/11/22 11:25:30;;;;;;;16.80;4.50;;;;;;;7.32;100.00;97351.56;5109600;28;20251;-81
2022/11/22 11:28:02;;;;;;;12.73;4.87;;;;;;;7.37;100.00;97347.63;5064396;28;20235;-81
2022/11/22 11:30:39;;;;;;;11.33;3.73;;;;;;;7.38;100.00;97354.56;5068979;28;20200;-82
2022/11/22 11:33:19;;;;;;;11.03;3.47;;;;;;;7.28;100.00;97361.53;5051645;28;20245;-81
2022/11/22 11:35:51;;;;;;;16.43;3.70;;;;;;;7.33;100.00;97361.13;5066422;28;20196;-82
2022/11/22 11:38:34;;;;;;;14.77;4.10;;;;;;;7.34;100.00;97355.78;5058400;28;20193;-81
2022/11/22 11:41:21;;;;;;;14.13;4.40;;;;;;;7.34;100.00;97355.78;5062779;28;20259;-81
2022/11/22 11:43:51;;;;;;;12.97;3.93;;;;;;;7.38;100.00;97346.66;5071179;28;20200;-82
2022/11/22 11:46:21;;;;;;;11.37;3.70;;;;;;;7.40;100.00;97347.38;5083809;28;20654;-81
2022/11/22 11:48:53;;;;;;;14.37;4.57;;;;;;;7.53;100.00;97351.66;5096064;28;20223;-82
2022/11/22 11:51:26;;;;;;;12.47;3.20;;;;;;;7.33;100.00;97353.25;5097093;28;20657;-82
2022/11/22 11:54:11;;;;;;;11.77;2.97;;;;;;;7.32;100.00;97331.34;5092672;28;20208;-82